Time;durP1;ratioP1;P1;durP2;ratioP2;P2;SDS_P1;SDS_P2;PMS_P1;PMS_P2;Temp;Humidity;BMP_temperature;BMP_pressure;BME280_temperature;BME280_humidity;BME280_pressure;Samples;Min_cycle;Max_cycle;Signal;HPM_P1;HPM_P2
2022/03/05 00:01:43;;;;;;;8.98;6.25;;;;;;;;;;10344408;28;20243;-82
2022/03/05 00:06:44;;;;;;;6.45;5.85;;;;;;;;;;10345429;28;20306;-82
2022/03/05 00:11:45;;;;;;;6.00;5.35;;;;;;;;;;10375163;28;20207;-81
2022/03/05 00:16:46;;;;;;;7.00;5.72;;;;;;;;;;10343762;28;20208;-80
2022/03/05 00:21:47;;;;;;;6.20;5.18;;;;;;;;;;10341823;28;20672;-80
2022/03/05 00:26:48;;;;;;;5.75;4.95;;;;;;;;;;10343398;28;20200;-79
2022/03/05 00:31:49;;;;;;;6.43;4.60;;;;;;;;;;10351339;28;20217;-80
2022/03/05 00:36:50;;;;;;;6.15;4.78;;;;;;;;;;10341390;28;20251;-79
2022/03/05 00:41:52;;;;;;;4.90;4.47;;;;;;;;;;10341788;28;20567;-79
2022/03/05 00:46:53;;;;;;;6.03;4.32;;;;;;;;;;10375553;28;20204;-79
2022/03/05 00:51:54;;;;;;;4.72;4.28;;;;;;;;;;10344275;28;20271;-81
2022/03/05 00:56:55;;;;;;;4.78;4.05;;;;;;;;;;10373920;28;20236;-81
2022/03/05 01:01:56;;;;;;;4.22;3.83;;;;;;;;;;10337566;28;20236;-79
2022/03/05 01:06:57;;;;;;;4.32;3.78;;;;;;;;;;10344383;28;20196;-80
2022/03/05 01:11:59;;;;;;;4.18;3.80;;;;;;;;;;10339524;28;20204;-81
2022/03/05 01:17:01;;;;;;;3.83;3.63;;;;;;;;;;10341452;28;20251;-81
2022/03/05 01:22:02;;;;;;;4.07;3.78;;;;;;;;;;10339560;28;20224;-81
2022/03/05 01:27:03;;;;;;;3.95;3.75;;;;;;;;;;10349022;28;20228;-81
2022/03/05 01:32:04;;;;;;;3.78;3.47;;;;;;;;;;10373214;28;20698;-81
2022/03/05 01:37:05;;;;;;;4.85;4.13;;;;;;;;;;10338343;28;20236;-81
2022/03/05 01:42:06;;;;;;;5.35;4.07;;;;;;;;;;10340187;28;20227;-80
2022/03/05 01:47:07;;;;;;;4.30;3.90;;;;;;;;;;10371633;28;20240;-80
2022/03/05 01:52:09;;;;;;;4.38;4.00;;;;;;;;;;10372490;28;20206;-81
2022/03/05 01:57:11;;;;;;;5.30;3.80;;;;;;;;;;10339421;28;20720;-81
2022/03/05 02:02:12;;;;;;;3.50;3.30;;;;;;;;;;10341502;28;20311;-81
2022/03/05 02:07:14;;;;;;;5.97;3.97;;;;;;;;;;10338438;28;20404;-81
2022/03/05 02:12:15;;;;;;;3.90;3.58;;;;;;;;;;10372861;28;20298;-80
2022/03/05 02:17:16;;;;;;;3.47;3.20;;;;;;;;;;10340790;28;20223;-76
2022/03/05 02:22:17;;;;;;;3.90;3.58;;;;;;;;;;10366266;28;20205;-81
2022/03/05 02:27:18;;;;;;;4.65;4.35;;;;;;;;;;10335397;28;20201;-81
2022/03/05 02:32:19;;;;;;;4.40;3.70;;;;;;;;;;10345646;28;20270;-81
2022/03/05 02:37:20;;;;;;;4.03;3.70;;;;;;;;;;10338396;28;20759;-80
2022/03/05 02:42:22;;;;;;;4.10;3.83;;;;;;;;;;10340545;28;20201;-80
2022/03/05 02:47:23;;;;;;;6.70;4.60;;;;;;;;;;10342595;28;20207;-81
2022/03/05 02:52:24;;;;;;;5.55;4.22;;;;;;;;;;10336645;28;20224;-80
2022/03/05 02:57:25;;;;;;;4.15;3.83;;;;;;;;;;10340378;28;20292;-79
2022/03/05 03:02:27;;;;;;;5.80;3.72;;;;;;;;;;10369630;28;20299;-80
2022/03/05 03:07:28;;;;;;;4.18;3.88;;;;;;;;;;10339334;28;21075;-78
2022/03/05 03:12:29;;;;;;;3.90;3.63;;;;;;;;;;10337982;28;20211;-78
2022/03/05 03:17:30;;;;;;;4.63;4.05;;;;;;;;;;10371850;28;20204;-78
2022/03/05 03:22:31;;;;;;;4.68;4.38;;;;;;;;;;10339098;28;20201;-78
2022/03/05 03:27:32;;;;;;;4.20;3.70;;;;;;;;;;10339113;28;20201;-78
2022/03/05 03:32:34;;;;;;;4.13;3.72;;;;;;;;;;10337926;28;20215;-79
2022/03/05 03:37:35;;;;;;;3.78;3.55;;;;;;;;;;10344227;28;20785;-71
2022/03/05 03:42:36;;;;;;;4.97;4.03;;;;;;;;;;10347155;28;20688;-79
2022/03/05 03:47:38;;;;;;;4.70;3.95;;;;;;;;;;10347459;28;20716;-80
2022/03/05 03:52:39;;;;;;;4.38;3.97;;;;;;;;;;10343512;28;20224;-72
2022/03/05 03:57:40;;;;;;;5.03;4.33;;;;;;;;;;10342761;28;20623;-78
2022/03/05 04:02:42;;;;;;;5.43;4.25;;;;;;;;;;10341885;28;20216;-79
2022/03/05 04:13:20;;;;;;;4.60;4.20;;;;;;;;;;10337682;28;20235;-79
2022/03/05 04:18:21;;;;;;;30.08;15.82;;;;;;;;;;10341279;28;20203;-78
2022/03/05 04:23:22;;;;;;;11.98;7.50;;;;;;;;;;10341291;28;20267;-78
2022/03/05 04:28:24;;;;;;;5.82;5.15;;;;;;;;;;10339362;28;20701;-79
2022/03/05 04:33:25;;;;;;;5.60;4.97;;;;;;;;;;10371086;28;20251;-78
2022/03/05 04:38:26;;;;;;;5.70;4.70;;;;;;;;;;10340287;28;20252;-79
2022/03/05 04:43:29;;;;;;;4.60;4.20;;;;;;;;;;10336199;28;20579;-78
2022/03/05 04:48:30;;;;;;;3.77;3.47;;;;;;;;;;10338312;28;20204;-78
2022/03/05 04:53:31;;;;;;;5.90;5.27;;;;;;;;;;10338067;28;20708;-78
2022/03/05 04:58:32;;;;;;;5.22;4.28;;;;;;;;;;10340046;28;20203;-78
2022/03/05 05:03:34;;;;;;;6.00;4.47;;;;;;;;;;10368689;28;20243;-77
2022/03/05 05:08:35;;;;;;;5.87;4.23;;;;;;;;;;10338569;28;20230;-77
2022/03/05 05:13:36;;;;;;;7.07;4.27;;;;;;;;;;10338793;28;20213;-77
2022/03/05 05:18:37;;;;;;;6.77;5.00;;;;;;;;;;10336292;28;20254;-77
2022/03/05 05:23:38;;;;;;;7.47;4.50;;;;;;;;;;10337296;28;20239;-77
2022/03/05 05:28:39;;;;;;;6.40;4.27;;;;;;;;;;10338329;28;20600;-71
2022/03/05 05:33:44;;;;;;;5.53;4.90;;;;;;;;;;10333975;28;20252;-76
2022/03/05 05:38:45;;;;;;;5.57;4.37;;;;;;;;;;10336682;28;20311;-77
2022/03/05 05:43:46;;;;;;;5.50;3.93;;;;;;;;;;10337603;28;20203;-77
2022/03/05 05:48:47;;;;;;;7.93;4.63;;;;;;;;;;10338750;28;20914;-76
2022/03/05 05:53:48;;;;;;;5.53;4.13;;;;;;;;;;10332373;28;20219;-76
2022/03/05 05:58:51;;;;;;;5.63;4.80;;;;;;;;;;10336705;28;20776;-76
2022/03/05 06:03:52;;;;;;;6.33;4.80;;;;;;;;;;10364010;28;20216;-76
2022/03/05 06:08:53;;;;;;;7.20;4.93;;;;;;;;;;10365584;28;20208;-76
2022/03/05 06:13:55;;;;;;;8.27;4.97;;;;;;;;;;10333065;28;20240;-76
2022/03/05 06:18:56;;;;;;;10.73;5.27;;;;;;;;;;10328843;28;20664;-76
2022/03/05 06:23:57;;;;;;;7.40;5.00;;;;;;;;;;10335691;28;20216;-76
2022/03/05 06:28:58;;;;;;;5.97;4.93;;;;;;;;;;10365102;28;20718;-76
2022/03/05 06:33:59;;;;;;;8.03;5.00;;;;;;;;;;10331265;28;20307;-77
2022/03/05 06:39:00;;;;;;;5.17;4.60;;;;;;;;;;10335635;28;20248;-76
2022/03/05 06:44:01;;;;;;;5.33;4.77;;;;;;;;;;10332926;28;20276;-77
2022/03/05 06:49:03;;;;;;;8.63;4.87;;;;;;;;;;10334583;28;20204;-76
2022/03/05 06:54:04;;;;;;;6.93;5.00;;;;;;;;;;10332507;28;20219;-76
2022/03/05 06:59:05;;;;;;;6.03;5.40;;;;;;;;;;10331933;28;20215;-76
2022/03/05 07:04:06;;;;;;;6.27;5.57;;;;;;;;;;10333203;28;20230;-76
2022/03/05 07:09:07;;;;;;;8.33;5.93;;;;;;;;;;10332066;28;20207;-76
2022/03/05 07:14:08;;;;;;;13.87;8.40;;;;;;;;;;10341539;28;20784;-76
2022/03/05 07:19:09;;;;;;;11.00;7.47;;;;;;;;;;10371689;28;20210;-76
2022/03/05 07:24:11;;;;;;;15.43;8.20;;;;;;;;;;10340600;28;20576;-76
2022/03/05 07:29:12;;;;;;;11.25;7.70;;;;;;;;;;10336573;28;20205;-77
2022/03/05 07:34:13;;;;;;;12.52;7.63;;;;;;;;;;10339902;28;20224;-76
2022/03/05 07:39:14;;;;;;;14.80;7.88;;;;;;;;;;10342139;28;20228;-75
2022/03/05 07:44:15;;;;;;;16.20;8.40;;;;;;;;;;10342447;28;20382;-77
2022/03/05 07:49:16;;;;;;;14.60;8.95;;;;;;;;;;10341774;28;20207;-76
2022/03/05 07:54:17;;;;;;;17.17;8.20;;;;;;;;;;10335885;28;20212;-76
2022/03/05 07:59:18;;;;;;;11.43;7.15;;;;;;;;;;10337016;28;20200;-78
2022/03/05 08:04:19;;;;;;;8.93;6.50;;;;;;;;;;10369615;28;20213;-76
2022/03/05 08:09:20;;;;;;;9.77;6.97;;;;;;;;;;10340681;28;20209;-79
2022/03/05 08:14:21;;;;;;;9.25;7.07;;;;;;;;;;10341848;28;20223;-77
2022/03/05 08:19:23;;;;;;;11.18;7.60;;;;;;;;;;10354319;28;20258;-79
2022/03/05 08:24:24;;;;;;;8.18;6.90;;;;;;;;;;10371155;28;20208;-77
2022/03/05 08:29:25;;;;;;;11.23;6.82;;;;;;;;;;10339995;28;20300;-78
2022/03/05 08:34:26;;;;;;;8.07;6.38;;;;;;;;;;10342490;28;20363;-78
2022/03/05 08:39:28;;;;;;;8.52;5.57;;;;;;;;;;10339178;28;20229;-78
2022/03/05 08:44:29;;;;;;;9.45;6.07;;;;;;;;;;10339121;28;20299;-78
2022/03/05 08:49:30;;;;;;;16.80;9.80;;;;;;;;;;10339490;28;21108;-78
2022/03/05 08:54:31;;;;;;;9.63;5.30;;;;;;;;;;10340056;28;20898;-79
2022/03/05 08:59:32;;;;;;;9.95;5.75;;;;;;;;;;10370788;28;23655;-79
2022/03/05 09:04:34;;;;;;;5.20;4.60;;;;;;;;;;10337158;28;20216;-79
2022/03/05 09:09:35;;;;;;;4.60;4.07;;;;;;;;;;10336389;28;20227;-80
2022/03/05 09:14:36;;;;;;;4.82;4.43;;;;;;;;;;10374201;28;20207;-81
2022/03/05 09:19:37;;;;;;;5.03;4.22;;;;;;;;;;10373059;28;20200;-82
2022/03/05 09:24:38;;;;;;;4.13;3.83;;;;;;;;;;10345557;28;20583;-81
2022/03/05 09:29:40;;;;;;;5.50;3.33;;;;;;;;;;10369854;28;20303;-78
2022/03/05 09:34:41;;;;;;;2.95;2.75;;;;;;;;;;10338927;28;20728;-80
2022/03/05 09:39:42;;;;;;;7.53;2.88;;;;;;;;;;10334479;28;20220;-80
2022/03/05 09:44:43;;;;;;;3.03;2.70;;;;;;;;;;10341818;28;20225;-81
2022/03/05 09:49:44;;;;;;;4.72;3.00;;;;;;;;;;10373355;28;20270;-84
2022/03/05 09:54:45;;;;;;;3.40;3.05;;;;;;;;;;10347810;28;20212;-84
2022/03/05 09:59:46;;;;;;;2.70;2.50;;;;;;;;;;10344167;28;20199;-78
2022/03/05 10:04:47;;;;;;;2.53;2.38;;;;;;;;;;10338878;28;20273;-79
2022/03/05 10:09:48;;;;;;;2.63;2.22;;;;;;;;;;10343014;28;20200;-81
2022/03/05 10:15:07;;;;;;;2.33;2.20;;;;;;;;;;10338806;28;21101;-79
2022/03/05 10:20:08;;;;;;;2.42;2.33;;;;;;;;;;10339854;28;20212;-82
2022/03/05 10:25:09;;;;;;;2.75;2.55;;;;;;;;;;10342694;28;20311;-80
2022/03/05 10:30:11;;;;;;;3.88;3.20;;;;;;;;;;10345585;28;20295;-81
2022/03/05 10:35:12;;;;;;;3.00;2.83;;;;;;;;;;10342238;28;20281;-81
2022/03/05 10:40:14;;;;;;;3.30;3.10;;;;;;;;;;10345555;28;20232;-83
2022/03/05 10:45:18;;;;;;;6.53;5.25;;;;;;;;;;10342960;28;20292;-84
2022/03/05 10:50:19;;;;;;;4.50;4.20;;;;;;;;;;10374442;28;20291;-82
2022/03/05 10:55:21;;;;;;;4.70;4.40;;;;;;;;;;10340972;28;20211;-82
2022/03/05 11:00:22;;;;;;;4.72;4.43;;;;;;;;;;10357445;28;20204;-82
2022/03/05 11:05:26;;;;;;;7.80;4.30;;;;;;;;;;10351823;28;20294;-83
2022/03/05 11:10:29;;;;;;;3.92;3.80;;;;;;;;;;10349982;28;20247;-82
2022/03/05 11:15:30;;;;;;;3.67;3.47;;;;;;;;;;10338972;28;20227;-83
2022/03/05 11:20:33;;;;;;;6.13;3.78;;;;;;;;;;10347488;28;20204;-82
2022/03/05 11:25:36;;;;;;;4.43;4.15;;;;;;;;;;10348363;28;20212;-82
2022/03/05 11:30:42;;;;;;;3.95;3.63;;;;;;;;;;10347765;28;20239;-80
2022/03/05 11:35:43;;;;;;;4.47;3.92;;;;;;;;;;10379499;28;20293;-81
2022/03/05 11:40:44;;;;;;;4.43;4.13;;;;;;;;;;10346095;28;20228;-80
2022/03/05 11:45:50;;;;;;;3.42;3.28;;;;;;;;;;10357841;28;20196;-82
2022/03/05 11:51:02;;;;;;;3.88;3.58;;;;;;;;;;10353848;28;20362;-80
2022/03/05 11:56:22;;;;;;;3.85;3.30;;;;;;;;;;10349956;28;20347;-82
2022/03/05 12:01:31;;;;;;;3.80;3.50;;;;;;;;;;10344262;28;20752;-82
2022/03/05 12:06:43;;;;;;;3.28;3.10;;;;;;;;;;10343929;28;20197;-82
2022/03/05 12:11:54;;;;;;;3.25;3.05;;;;;;;;;;10346041;28;20277;-81
2022/03/05 12:16:55;;;;;;;3.20;3.10;;;;;;;;;;10375857;28;20216;-81
2022/03/05 12:21:57;;;;;;;3.40;3.20;;;;;;;;;;10377400;28;20201;-81
2022/03/05 12:27:01;;;;;;;4.32;3.45;;;;;;;;;;10381824;28;20251;-83
2022/03/05 12:32:02;;;;;;;3.05;2.80;;;;;;;;;;10385173;28;20571;-81
2022/03/05 12:37:03;;;;;;;3.15;3.05;;;;;;;;;;10343740;28;20370;-82
2022/03/05 12:42:05;;;;;;;3.50;3.33;;;;;;;;;;10350506;28;20278;-82
2022/03/05 12:47:07;;;;;;;3.63;3.42;;;;;;;;;;10375355;28;20200;-80
2022/03/05 12:52:09;;;;;;;3.15;3.05;;;;;;;;;;10375487;28;20201;-83
2022/03/05 12:57:10;;;;;;;3.38;3.17;;;;;;;;;;10345631;28;20220;-83
2022/03/05 13:02:11;;;;;;;3.50;3.30;;;;;;;;;;10339968;28;20213;-81
2022/03/05 13:07:12;;;;;;;3.67;3.38;;;;;;;;;;10341264;28;20327;-83
2022/03/05 13:12:13;;;;;;;3.53;3.38;;;;;;;;;;10343122;28;20340;-82
2022/03/05 13:17:14;;;;;;;3.88;3.60;;;;;;;;;;10375659;28;20292;-83
2022/03/05 13:22:24;;;;;;;4.00;3.70;;;;;;;;;;10375835;28;20708;-81
2022/03/05 13:27:26;;;;;;;3.30;3.10;;;;;;;;;;10374684;28;20291;-82
2022/03/05 13:32:27;;;;;;;3.63;3.42;;;;;;;;;;10344265;28;20212;-80
2022/03/05 13:37:28;;;;;;;3.35;3.22;;;;;;;;;;10342432;28;20227;-81
2022/03/05 13:42:33;;;;;;;3.50;3.30;;;;;;;;;;10341474;28;20196;-80
2022/03/05 13:47:47;;;;;;;3.70;3.50;;;;;;;;;;10334401;28;20642;-81
2022/03/05 13:52:53;;;;;;;3.38;3.17;;;;;;;;;;10368512;28;20711;-81
2022/03/05 13:57:55;;;;;;;3.10;3.00;;;;;;;;;;10336972;28;20986;-81
2022/03/05 14:02:58;;;;;;;3.20;3.10;;;;;;;;;;10335865;28;20232;-82
2022/03/05 14:07:59;;;;;;;4.18;3.08;;;;;;;;;;10339349;28;20200;-80
2022/03/05 14:13:01;;;;;;;3.50;3.30;;;;;;;;;;10344699;28;20296;-77
2022/03/05 14:18:03;;;;;;;3.50;3.30;;;;;;;;;;10338487;28;20212;-82
2022/03/05 14:23:06;;;;;;;2.70;2.60;;;;;;;;;;10339536;28;20251;-81
2022/03/05 14:28:12;;;;;;;2.90;2.75;;;;;;;;;;10369050;28;20207;-80
2022/03/05 14:33:13;;;;;;;3.53;3.42;;;;;;;;;;10336624;28;20704;-80
2022/03/05 14:38:15;;;;;;;3.65;3.55;;;;;;;;;;10370296;28;20232;-80
2022/03/05 14:43:16;;;;;;;3.45;3.20;;;;;;;;;;10341801;28;20261;-80
2022/03/05 14:48:17;;;;;;;2.90;2.80;;;;;;;;;;10354875;28;20204;-81
2022/03/05 14:53:18;;;;;;;3.38;3.17;;;;;;;;;;10340354;28;20216;-80
2022/03/05 14:58:20;;;;;;;3.40;3.30;;;;;;;;;;10337605;28;20624;-79
2022/03/05 15:03:22;;;;;;;4.22;3.30;;;;;;;;;;10341352;28;20208;-81
2022/03/05 15:08:23;;;;;;;4.65;4.07;;;;;;;;;;10335756;28;20205;-80
2022/03/05 15:13:24;;;;;;;3.30;3.08;;;;;;;;;;10370601;28;20215;-83
2022/03/05 15:18:25;;;;;;;3.38;3.17;;;;;;;;;;10338651;28;20748;-82
2022/03/05 15:23:26;;;;;;;3.30;3.10;;;;;;;;;;10340093;28;20215;-82
2022/03/05 15:28:27;;;;;;;3.13;2.97;;;;;;;;;;10337167;28;20877;-82
2022/03/05 15:33:28;;;;;;;3.45;3.22;;;;;;;;;;10339956;28;20276;-81
2022/03/05 15:38:29;;;;;;;4.22;3.55;;;;;;;;;;10349980;28;20552;-80
2022/03/05 15:43:30;;;;;;;3.58;3.28;;;;;;;;;;10349741;28;20229;-81
2022/03/05 15:48:31;;;;;;;4.10;3.70;;;;;;;;;;10349992;28;20223;-81
2022/03/05 15:53:33;;;;;;;4.28;3.92;;;;;;;;;;10350751;28;20220;-80
2022/03/05 15:58:34;;;;;;;4.55;4.28;;;;;;;;;;10346127;28;20857;-81
2022/03/05 16:03:36;;;;;;;4.18;3.90;;;;;;;;;;10348242;28;20291;-81
2022/03/05 16:08:37;;;;;;;4.43;4.13;;;;;;;;;;10341562;28;20216;-81
2022/03/05 16:13:38;;;;;;;4.57;4.22;;;;;;;;;;10346569;28;20224;-79
2022/03/05 16:18:39;;;;;;;4.70;4.38;;;;;;;;;;10377325;28;20263;-75
2022/03/05 16:23:40;;;;;;;5.68;4.97;;;;;;;;;;10346449;28;20294;-80
2022/03/05 16:28:41;;;;;;;4.13;3.92;;;;;;;;;;10341701;28;20215;-80
2022/03/05 16:33:43;;;;;;;4.35;4.00;;;;;;;;;;10374694;28;20583;-79
2022/03/05 16:38:44;;;;;;;3.75;3.55;;;;;;;;;;10343854;28;20219;-80
2022/03/05 16:43:45;;;;;;;5.20;4.47;;;;;;;;;;10339706;28;20576;-79
2022/03/05 16:48:46;;;;;;;4.45;4.07;;;;;;;;;;10342106;28;20246;-79
2022/03/05 16:53:47;;;;;;;5.28;3.90;;;;;;;;;;10375855;28;20302;-80
2022/03/05 16:58:48;;;;;;;4.57;4.28;;;;;;;;;;10342141;28;20347;-79
2022/03/05 17:03:50;;;;;;;4.53;4.13;;;;;;;;;;10342962;28;20267;-79
2022/03/05 17:08:51;;;;;;;4.97;4.38;;;;;;;;;;10343043;28;20216;-79
2022/03/05 17:13:52;;;;;;;5.15;4.75;;;;;;;;;;10341592;28;20217;-80
2022/03/05 17:18:53;;;;;;;5.53;5.18;;;;;;;;;;10375190;28;20204;-79
2022/03/05 17:23:54;;;;;;;6.85;6.18;;;;;;;;;;10340629;28;20203;-79
2022/03/05 17:28:55;;;;;;;6.75;6.05;;;;;;;;;;10342971;28;20197;-79
2022/03/05 17:33:56;;;;;;;7.78;7.00;;;;;;;;;;10339720;28;20238;-79
2022/03/05 17:38:57;;;;;;;10.80;7.20;;;;;;;;;;10339925;28;20278;-79
2022/03/05 17:43:58;;;;;;;6.65;6.03;;;;;;;;;;10341247;28;20201;-80
2022/03/05 17:48:59;;;;;;;7.97;6.72;;;;;;;;;;10339599;28;20196;-79
2022/03/05 17:54:00;;;;;;;9.75;7.20;;;;;;;;;;10342429;28;20207;-78
2022/03/05 17:59:02;;;;;;;9.48;7.78;;;;;;;;;;10344039;28;22067;-78
2022/03/05 18:04:03;;;;;;;9.25;7.50;;;;;;;;;;10341462;28;20591;-79
2022/03/05 18:09:04;;;;;;;8.15;6.70;;;;;;;;;;10374278;28;20212;-80
2022/03/05 18:14:05;;;;;;;10.40;7.63;;;;;;;;;;10336787;28;20302;-78
2022/03/05 18:19:07;;;;;;;9.25;7.63;;;;;;;;;;10340915;28;20196;-78
2022/03/05 18:24:08;;;;;;;14.60;11.43;;;;;;;;;;10342715;28;20205;-78
2022/03/05 18:29:09;;;;;;;15.60;11.45;;;;;;;;;;10339164;28;20632;-79
2022/03/05 18:34:11;;;;;;;20.38;11.27;;;;;;;;;;10338621;28;20235;-80
2022/03/05 18:39:12;;;;;;;18.70;13.48;;;;;;;;;;10372214;28;20260;-78
2022/03/05 18:44:13;;;;;;;17.60;13.00;;;;;;;;;;10341018;28;20215;-77
2022/03/05 18:49:15;;;;;;;21.70;14.30;;;;;;;;;;10340339;28;20347;-78
2022/03/05 18:54:16;;;;;;;15.40;12.65;;;;;;;;;;10340193;28;20300;-77
2022/03/05 18:59:17;;;;;;;15.95;11.85;;;;;;;;;;10338536;28;20311;-77
2022/03/05 19:04:18;;;;;;;15.25;11.02;;;;;;;;;;10334945;28;20224;-77
2022/03/05 19:09:20;;;;;;;19.13;13.02;;;;;;;;;;10345764;28;20694;-80
2022/03/05 19:14:21;;;;;;;18.85;13.02;;;;;;;;;;10347425;28;20217;-77
2022/03/05 19:19:22;;;;;;;12.10;10.35;;;;;;;;;;10350085;28;20275;-80
2022/03/05 19:24:23;;;;;;;13.82;9.57;;;;;;;;;;10359274;28;20291;-76
2022/03/05 19:29:24;;;;;;;10.18;9.10;;;;;;;;;;10342467;28;20275;-77
2022/03/05 19:34:25;;;;;;;10.80;8.27;;;;;;;;;;10344443;28;20577;-77
2022/03/05 19:39:26;;;;;;;12.20;8.82;;;;;;;;;;10344907;28;20227;-76
2022/03/05 19:44:31;;;;;;;10.23;8.60;;;;;;;;;;10344178;28;20219;-77
2022/03/05 19:49:32;;;;;;;12.55;9.68;;;;;;;;;;10343835;28;20573;-75
2022/03/05 19:54:33;;;;;;;13.15;9.02;;;;;;;;;;10344818;28;20212;-79
2022/03/05 19:59:34;;;;;;;16.88;10.55;;;;;;;;;;10341928;28;20282;-77
2022/03/05 20:04:35;;;;;;;13.90;10.05;;;;;;;;;;10343619;28;20217;-78
2022/03/05 20:09:36;;;;;;;10.90;9.25;;;;;;;;;;10375780;28;20204;-78
2022/03/05 20:14:37;;;;;;;9.85;8.40;;;;;;;;;;10343751;28;20220;-77
2022/03/05 20:19:39;;;;;;;10.00;9.00;;;;;;;;;;10368851;28;20779;-73
2022/03/05 20:24:40;;;;;;;11.65;8.65;;;;;;;;;;10340013;28;22203;-77
2022/03/05 20:29:41;;;;;;;9.93;8.93;;;;;;;;;;10344047;28;20557;-77
2022/03/05 20:34:42;;;;;;;10.98;8.57;;;;;;;;;;10337569;28;20220;-78
2022/03/05 20:39:44;;;;;;;9.70;7.90;;;;;;;;;;10347118;28;20221;-78
2022/03/05 20:44:45;;;;;;;8.25;7.30;;;;;;;;;;10339526;28;20201;-78
2022/03/05 20:49:46;;;;;;;10.10;7.80;;;;;;;;;;10343927;28;20664;-78
2022/03/05 20:54:47;;;;;;;10.70;7.50;;;;;;;;;;10341775;28;20219;-78
2022/03/05 20:59:48;;;;;;;13.10;7.70;;;;;;;;;;10340759;28;20254;-77
2022/03/05 21:04:49;;;;;;;11.90;8.82;;;;;;;;;;10342501;28;20247;-77
2022/03/05 21:09:50;;;;;;;10.05;8.00;;;;;;;;;;10371660;28;20287;-82
2022/03/05 21:14:52;;;;;;;11.45;7.95;;;;;;;;;;10342649;28;20212;-81
2022/03/05 21:19:53;;;;;;;9.57;8.00;;;;;;;;;;10370046;28;20196;-77
2022/03/05 21:24:54;;;;;;;10.45;8.60;;;;;;;;;;10340948;28;20236;-78
2022/03/05 21:29:55;;;;;;;10.52;8.13;;;;;;;;;;10336882;28;20255;-78
2022/03/05 21:34:56;;;;;;;9.90;7.70;;;;;;;;;;10367754;28;20598;-78
2022/03/05 21:39:57;;;;;;;9.30;8.18;;;;;;;;;;10334963;28;20216;-78
2022/03/05 21:44:58;;;;;;;9.07;7.75;;;;;;;;;;10337198;28;20224;-78
2022/03/05 21:49:59;;;;;;;9.63;7.80;;;;;;;;;;10371101;28;20224;-78
2022/03/05 21:55:00;;;;;;;13.07;7.65;;;;;;;;;;10335228;28;20208;-78
2022/03/05 22:00:01;;;;;;;11.80;7.30;;;;;;;;;;10334572;28;20230;-78
2022/03/05 22:05:03;;;;;;;8.30;7.45;;;;;;;;;;10337338;28;20311;-78
2022/03/05 22:10:05;;;;;;;8.23;7.22;;;;;;;;;;10337624;28;20209;-78
2022/03/05 22:15:07;;;;;;;9.85;7.90;;;;;;;;;;10373333;28;20223;-78
2022/03/05 22:20:08;;;;;;;13.18;8.30;;;;;;;;;;10364840;28;20258;-78
2022/03/05 22:25:09;;;;;;;12.43;8.25;;;;;;;;;;10339037;28;20200;-77
2022/03/05 22:30:11;;;;;;;12.98;8.65;;;;;;;;;;10338870;28;20222;-77
2022/03/05 22:35:12;;;;;;;10.75;7.05;;;;;;;;;;10339428;28;20375;-78
2022/03/05 22:40:13;;;;;;;9.18;7.50;;;;;;;;;;10335561;28;20279;-77
2022/03/05 22:45:14;;;;;;;7.28;6.65;;;;;;;;;;10337485;28;20263;-78
2022/03/05 22:50:15;;;;;;;7.43;6.63;;;;;;;;;;10333815;28;20234;-78
2022/03/05 22:55:16;;;;;;;6.95;6.18;;;;;;;;;;10333083;28;20581;-78
2022/03/05 23:00:20;;;;;;;7.80;6.18;;;;;;;;;;10337900;28;20287;-78
2022/03/05 23:05:21;;;;;;;7.25;6.53;;;;;;;;;;10335996;28;20221;-77
2022/03/05 23:10:22;;;;;;;7.38;5.75;;;;;;;;;;10333640;28;20258;-77
2022/03/05 23:15:23;;;;;;;7.88;6.03;;;;;;;;;;10331307;28;20208;-77
2022/03/05 23:20:25;;;;;;;6.30;5.70;;;;;;;;;;10338352;28;20205;-78
2022/03/05 23:25:26;;;;;;;9.07;6.43;;;;;;;;;;10338293;28;20213;-78
2022/03/05 23:30:27;;;;;;;7.43;6.30;;;;;;;;;;10369430;28;20208;-78
2022/03/05 23:35:28;;;;;;;7.55;6.25;;;;;;;;;;10337832;28;20572;-78
2022/03/05 23:40:29;;;;;;;6.85;6.20;;;;;;;;;;10352279;28;20240;-78
2022/03/05 23:45:31;;;;;;;6.72;6.00;;;;;;;;;;10336992;28;20288;-78
2022/03/05 23:50:32;;;;;;;6.57;5.97;;;;;;;;;;10335519;28;20216;-78
2022/03/05 23:55:33;;;;;;;9.75;6.05;;;;;;;;;;10343640;28;20220;-78
